Time;durP1;ratioP1;P1;durP2;ratioP2;P2;SDS_P1;SDS_P2;PMS_P1;PMS_P2;Temp;Humidity;BMP_temperature;BMP_pressure;BME280_temperature;BME280_humidity;BME280_pressure;Samples;Min_cycle;Max_cycle;Signal;HPM_P1;HPM_P2
2021/11/14 00:00:23;;;;;;;;;;;;;;;;;;4421894;32;20485;-71
2021/11/14 00:02:49;;;;;;;57.30;31.50;;;;;;;;;;4404335;32;19933;-72
2021/11/14 00:05:14;;;;;;;37.35;24.48;;;;;;;;;;4406944;32;20530;-71
2021/11/14 00:07:39;;;;;;;;;;;;;;;;;;4406588;32;20102;-71
2021/11/14 00:10:05;;;;;;;65.00;36.90;;;;;;;;;;4406212;32;19993;-71
2021/11/14 00:12:30;;;;;;;;;;;;;;;;;;4411868;32;20043;-72
2021/11/14 00:15:01;;;;;;;49.40;28.62;;;;;;;;;;4436392;32;19974;-71
2021/11/14 00:17:27;;;;;;;42.92;26.90;;;;;;;;;;4436932;32;20025;-71
2021/11/14 00:20:04;;;;;;;;;;;;;;;;;;4437185;32;20391;-71
2021/11/14 00:22:29;;;;;;;65.53;31.83;;;;;;;;;;4436480;32;19957;-71
2021/11/14 00:27:50;;;;;;;64.40;32.42;;;;;;;;;;4397198;32;19945;-71
2021/11/14 00:30:16;;;;;;;43.80;27.70;;;;;;;;;;4406082;32;20061;-72
2021/11/14 00:32:44;;;;;;;51.55;30.62;;;;;;;;;;4405485;32;20100;-71
2021/11/14 00:35:10;;;;;;;40.65;26.90;;;;;;;;;;4405623;32;20367;-71
2021/11/14 00:37:36;;;;;;;;;;;;;;;;;;4405896;32;20105;-72
2021/11/14 00:40:08;;;;;;;60.28;32.85;;;;;;;;;;4405578;32;19975;-71
2021/11/14 00:42:42;;;;;;;55.90;31.33;;;;;;;;;;4420459;32;20021;-71
2021/11/14 00:45:08;;;;;;;53.08;32.72;;;;;;;;;;4436185;32;20018;-71
2021/11/14 00:47:33;;;;;;;;;;;;;;;;;;4436620;32;20445;-72
2021/11/14 00:49:59;;;;;;;70.82;36.92;;;;;;;;;;4435777;32;19937;-71
2021/11/14 00:52:24;;;;;;;;;;;;;;;;;;4422286;32;20014;-71
2021/11/14 00:54:49;;;;;;;66.62;34.20;;;;;;;;;;4436500;32;19948;-71
2021/11/14 00:57:17;;;;;;;;;;;;;;;;;;4436355;32;20064;-71
2021/11/14 00:59:42;;;;;;;58.00;31.98;;;;;;;;;;4436125;32;20295;-72
2021/11/14 01:02:07;;;;;;;;;;;;;;;;;;4436129;32;20022;-71
2021/11/14 01:04:42;;;;;;;62.00;33.42;;;;;;;;;;4435728;32;20307;-71
2021/11/14 01:07:09;;;;;;;57.30;31.25;;;;;;;;;;4436240;32;20117;-71
2021/11/14 01:09:35;;;;;;;70.68;35.78;;;;;;;;;;4433312;32;20414;-71
2021/11/14 01:12:00;;;;;;;;;;;;;;;;;;4405872;32;20023;-72
2021/11/14 01:14:28;;;;;;;74.95;34.97;;;;;;;;;;4405540;32;19937;-71
2021/11/14 01:17:09;;;;;;;73.57;35.38;;;;;;;;;;4404072;32;20041;-71
2021/11/14 01:19:35;;;;;;;52.58;30.58;;;;;;;;;;4405795;32;20044;-71
2021/11/14 01:22:00;;;;;;;;;;;;;;;;;;4405737;32;20019;-71
2021/11/14 01:24:28;;;;;;;54.72;31.98;;;;;;;;;;4405462;32;19982;-72
2021/11/14 01:26:56;;;;;;;68.90;34.72;;;;;;;;;;4404309;32;20113;-71
2021/11/14 01:29:21;;;;;;;49.42;31.05;;;;;;;;;;4405293;32;20058;-72
2021/11/14 01:32:08;;;;;;;;;;;;;;;;;;4405587;32;20023;-72
2021/11/14 01:34:32;;;;;;;60.35;32.97;;;;;;;;;;4419933;32;20342;-72
2021/11/14 01:36:57;;;;;;;;;;;;;;;;;;4420753;32;20105;-72
2021/11/14 01:39:26;;;;;;;78.35;40.42;;;;;;;;;;4417434;32;19937;-72
2021/11/14 01:41:52;;;;;;;64.80;35.92;;;;;;;;;;4436036;32;20132;-72
2021/11/14 01:44:17;;;;;;;;;;;;;;;;;;4422013;32;20029;-72
2021/11/14 01:46:44;;;;;;;80.28;39.40;;;;;;;;;;4435892;32;20008;-72
2021/11/14 01:49:19;;;;;;;55.63;33.10;;;;;;;;;;4434870;32;20078;-72
2021/11/14 01:51:44;;;;;;;90.93;43.33;;;;;;;;;;4435597;32;20082;-73
2021/11/14 01:54:09;;;;;;;;;;;;;;;;;;4435919;32;20033;-72
2021/11/14 01:56:34;;;;;;;96.80;44.78;;;;;;;;;;4434915;32;19946;-72
2021/11/14 01:59:00;;;;;;;;;;;;;;;;;;4435900;32;20145;-73
2021/11/14 02:01:30;;;;;;;116.47;49.83;;;;;;;;;;4435433;32;19933;-73
2021/11/14 02:04:08;;;;;;;;;;;;;;;;;;;;;
2021/11/14 02:06:35;;;;;;;75.57;35.80;;;;;;;;;;4438442;32;20536;-73
2021/11/14 02:09:01;;;;;;;99.40;47.58;;;;;;;;;;4438323;32;20037;-71
2021/11/14 02:11:26;;;;;;;87.25;45.15;;;;;;;;;;4438466;32;20064;-71
2021/11/14 02:13:51;;;;;;;;;;;;;;;;;;4438925;32;20343;-72
2021/11/14 02:16:18;;;;;;;105.68;47.33;;;;;;;;;;4438240;32;19970;-71
2021/11/14 02:18:59;;;;;;;86.35;44.40;;;;;;;;;;4438365;32;20358;-72
2021/11/14 02:21:25;;;;;;;92.45;45.47;;;;;;;;;;4438449;32;20074;-71
2021/11/14 02:23:50;;;;;;;;;;;;;;;;;;4438436;32;20021;-71
2021/11/14 02:26:15;;;;;;;90.80;44.17;;;;;;;;;;4409881;32;19942;-71
2021/11/14 02:28:40;;;;;;;;;;;;;;;;;;4407001;32;20149;-72
2021/11/14 02:31:06;;;;;;;92.78;43.63;;;;;;;;;;4408819;32;19937;-72
2021/11/14 02:33:33;;;;;;;;;;;;;;;;;;4407321;32;20072;-71
2021/11/14 02:35:59;;;;;;;;;;;;;;;;;;4408128;32;19956;-71
2021/11/14 02:38:24;;;;;;;85.72;42.67;;;;;;;;;;4409931;32;20204;-71
2021/11/14 02:40:50;;;;;;;;;;;;;;;;;;4421814;32;20343;-71
2021/11/14 02:43:18;;;;;;;82.88;42.15;;;;;;;;;;4422539;32;20315;-71
2021/11/14 02:45:44;;;;;;;89.28;44.85;;;;;;;;;;4425013;32;20077;-71
2021/11/14 02:48:09;;;;;;;;;;;;;;;;;;4437965;32;20143;-72
2021/11/14 02:50:35;;;;;;;71.50;40.60;;;;;;;;;;4437694;32;19951;-71
2021/11/14 02:53:00;;;;;;;;;;;;;;;;;;4437710;32;20355;-71
2021/11/14 02:55:35;;;;;;;68.90;39.75;;;;;;;;;;4434959;32;19951;-72
2021/11/14 02:58:01;;;;;;;70.70;39.75;;;;;;;;;;4437904;32;20060;-71
2021/11/14 03:00:26;;;;;;;;;;;;;;;;;;4431712;32;20026;-72
2021/11/14 03:02:51;;;;;;;79.97;42.08;;;;;;;;;;4422324;32;19990;-71
2021/11/14 03:11:13;;;;;;;73.47;40.70;;;;;;;;;;4437447;32;20070;-71
2021/11/14 03:13:43;;;;;;;61.55;36.90;;;;;;;;;;4437088;32;20022;-72
2021/11/14 03:16:09;;;;;;;77.03;44.17;;;;;;;;;;4423496;32;20022;-71
2021/11/14 03:18:34;;;;;;;;;;;;;;;;;;4437699;32;20040;-72
2021/11/14 03:21:02;;;;;;;62.67;36.45;;;;;;;;;;4436341;32;19959;-72
2021/11/14 03:23:28;;;;;;;70.40;38.97;;;;;;;;;;4437092;32;20121;-72
2021/11/14 03:25:53;;;;;;;;;;;;;;;;;;4424306;32;20044;-72
2021/11/14 03:28:19;;;;;;;75.62;40.88;;;;;;;;;;4437595;32;19946;-72
2021/11/14 03:30:48;;;;;;;59.25;35.95;;;;;;;;;;4436548;32;20049;-71
2021/11/14 03:33:14;;;;;;;77.10;42.85;;;;;;;;;;4437174;32;20025;-72
2021/11/14 03:36:14;;;;;;;;;;;;;;;;;;;;;
2021/11/14 03:38:57;;;;;;;64.20;37.80;;;;;;;;;;4430631;32;20052;-72
2021/11/14 03:41:27;;;;;;;58.78;36.42;;;;;;;;;;4437638;32;20040;-72
2021/11/14 03:43:53;;;;;;;61.97;36.05;;;;;;;;;;4437196;32;20047;-72
2021/11/14 03:46:18;;;;;;;;;;;;;;;;;;4437385;32;20331;-72
2021/11/14 03:48:44;;;;;;;73.45;42.58;;;;;;;;;;4431950;32;19977;-71
2021/11/14 03:51:10;;;;;;;62.33;36.30;;;;;;;;;;4407037;32;20570;-71
2021/11/14 03:53:36;;;;;;;;;;;;;;;;;;4406429;32;20026;-71
2021/11/14 03:56:01;;;;;;;72.55;39.60;;;;;;;;;;4408218;32;19984;-71
2021/11/14 03:58:27;;;;;;;;;;;;;;;;;;4425342;32;20168;-71
2021/11/14 04:00:54;;;;;;;61.55;34.45;;;;;;;;;;4422143;32;19941;-71
2021/11/14 04:03:19;;;;;;;67.68;38.00;;;;;;;;;;4407699;32;20360;-71
2021/11/14 04:05:44;;;;;;;;;;;;;;;;;;4421788;32;20084;-71
2021/11/14 04:08:11;;;;;;;65.45;38.65;;;;;;;;;;4407847;32;19974;-71
2021/11/14 04:10:37;;;;;;;56.72;32.75;;;;;;;;;;4422706;32;20121;-71
2021/11/14 04:13:03;;;;;;;;;;;;;;;;;;4419633;32;20097;-72
2021/11/14 04:15:28;;;;;;;45.97;29.92;;;;;;;;;;4406468;32;19937;-71
2021/11/14 04:17:56;;;;;;;;;;;;;;;;;;4406152;32;20083;-71
2021/11/14 04:20:24;;;;;;;49.17;30.92;;;;;;;;;;4420983;32;20007;-71
2021/11/14 04:22:49;;;;;;;58.08;33.28;;;;;;;;;;4421495;32;20023;-72
2021/11/14 04:25:15;;;;;;;;;;;;;;;;;;4417061;32;20042;-71
2021/11/14 04:27:40;;;;;;;58.30;33.65;;;;;;;;;;4405177;32;19937;-72
2021/11/14 04:30:05;;;;;;;;;;;;;;;;;;4405673;32;20092;-71
2021/11/14 04:32:30;;;;;;;52.00;29.73;;;;;;;;;;4406174;32;19972;-71
2021/11/14 04:34:55;;;;;;;66.95;35.53;;;;;;;;;;4421500;32;20017;-71
2021/11/14 04:37:21;;;;;;;;;;;;;;;;;;4421271;32;20054;-71
2021/11/14 04:39:49;;;;;;;52.47;31.58;;;;;;;;;;4407133;32;19944;-71
2021/11/14 04:42:14;;;;;;;54.67;31.62;;;;;;;;;;4421316;32;20089;-71
2021/11/14 04:44:39;;;;;;;;;;;;;;;;;;4420084;32;20022;-71
2021/11/14 04:47:05;;;;;;;56.75;34.30;;;;;;;;;;4418948;32;19937;-71
2021/11/14 04:49:30;;;;;;;;;;;;;;;;;;4421439;32;20468;-71
2021/11/14 04:51:55;;;;;;;54.20;30.70;;;;;;;;;;4421201;32;19948;-71
2021/11/14 04:54:21;;;;;;;53.28;32.72;;;;;;;;;;4420941;32;20380;-72
2021/11/14 04:56:46;;;;;;;;;;;;;;;;;;4422002;32;20378;-71
2021/11/14 04:59:14;;;;;;;60.25;31.62;;;;;;;;;;4427089;32;19997;-71
2021/11/14 05:01:40;;;;;;;49.63;28.65;;;;;;;;;;4436583;32;20041;-71
2021/11/14 05:04:05;;;;;;;;;;;;;;;;;;4437447;32;20487;-71
2021/11/14 05:06:34;;;;;;;46.28;26.70;;;;;;;;;;4435743;32;19932;-71
2021/11/14 05:09:09;;;;;;;56.35;30.67;;;;;;;;;;4421195;32;20063;-71
2021/11/14 05:11:44;;;;;;;;;;;;;;;;;;;;;
2021/11/14 05:14:10;;;;;;;46.85;28.40;;;;;;;;;;4436144;32;20021;-71
2021/11/14 05:16:35;;;;;;;;;;;;;;;;;;4436772;32;20053;-71
2021/11/14 05:19:02;;;;;;;45.35;27.02;;;;;;;;;;4435872;32;19933;-71
2021/11/14 05:21:28;;;;;;;47.70;27.10;;;;;;;;;;4435949;32;20141;-71
2021/11/14 05:23:53;;;;;;;;;;;;;;;;;;4433023;32;20386;-71
2021/11/14 05:26:19;;;;;;;49.72;29.33;;;;;;;;;;4406749;32;20340;-71
2021/11/14 05:28:44;;;;;;;;;;;;;;;;;;4406165;32;20019;-71
2021/11/14 05:31:10;;;;;;;43.03;27.35;;;;;;;;;;4405544;32;20315;-71
2021/11/14 05:33:35;;;;;;;;;;;;;;;;;;4405433;32;20340;-71
2021/11/14 05:36:00;;;;;;;55.30;31.67;;;;;;;;;;4405461;32;19937;-71
2021/11/14 05:38:25;;;;;;;;;;;;;;;;;;4406795;32;20181;-71
2021/11/14 05:40:51;;;;;;;47.20;28.60;;;;;;;;;;4438553;32;20402;-72
2021/11/14 05:43:16;;;;;;;;;;;;;;;;;;4438922;32;20029;-71
2021/11/14 05:45:41;;;;;;;56.88;29.33;;;;;;;;;;4440277;32;19972;-71
2021/11/14 05:48:07;;;;;;;;;;;;;;;;;;4439212;32;20328;-71
2021/11/14 05:50:32;;;;;;;61.47;31.55;;;;;;;;;;4439393;32;19936;-71
2021/11/14 05:52:57;;;;;;;;;;;;;;;;;;4438755;32;20371;-71
2021/11/14 05:55:23;;;;;;;63.50;33.70;;;;;;;;;;4438421;32;19937;-71
2021/11/14 05:58:01;;;;;;;;;;;;;;;;;;4438591;32;20421;-69
2021/11/14 06:00:45;;;;;;;57.88;29.85;;;;;;;;;;4438195;32;19936;-71
2021/11/14 06:05:39;;;;;;;;;;;;;;;;;;4438534;32;20017;-71
2021/11/14 06:08:09;;;;;;;55.67;31.62;;;;;;;;;;4417585;32;19990;-70
2021/11/14 06:10:35;;;;;;;60.95;32.75;;;;;;;;;;4408267;32;20053;-71
2021/11/14 06:13:00;;;;;;;;;;;;;;;;;;4408875;32;20027;-71
2021/11/14 06:15:28;;;;;;;71.90;34.30;;;;;;;;;;4409103;32;20363;-70
2021/11/14 06:17:53;;;;;;;59.05;32.13;;;;;;;;;;4407625;32;20071;-72
2021/11/14 06:20:19;;;;;;;;;;;;;;;;;;4407142;32;20023;-71
2021/11/14 06:22:46;;;;;;;64.44;33.02;;;;;;;;;;4407420;32;19942;-71
2021/11/14 06:25:12;;;;;;;60.12;32.55;;;;;;;;;;4407968;32;20464;-71
2021/11/14 06:27:37;;;;;;;;;;;;;;;;;;4408032;32;20071;-71
2021/11/14 06:30:14;;;;;;;62.05;33.13;;;;;;;;;;4407721;32;19937;-71
2021/11/14 06:32:49;;;;;;;61.97;33.17;;;;;;;;;;4404984;32;20095;-71
2021/11/14 06:35:14;;;;;;;59.13;33.67;;;;;;;;;;4406717;32;20042;-72
2021/11/14 06:37:40;;;;;;;;;;;;;;;;;;4405913;32;20446;-71
2021/11/14 06:40:06;;;;;;;66.15;32.65;;;;;;;;;;4408973;32;19948;-71
2021/11/14 06:42:31;;;;;;;;;;;;;;;;;;4408150;32;20034;-71
2021/11/14 06:44:56;;;;;;;70.70;35.35;;;;;;;;;;4407221;32;20358;-72
2021/11/14 06:47:21;;;;;;;;;;;;;;;;;;4406689;32;20092;-71
2021/11/14 06:49:51;;;;;;;66.18;33.53;;;;;;;;;;4406540;32;19975;-71
2021/11/14 06:52:16;;;;;;;73.68;38.10;;;;;;;;;;4426456;32;20129;-71
2021/11/14 06:54:44;;;;;;;;;;;;;;;;;;4437630;32;20128;-71
2021/11/14 06:57:19;;;;;;;67.60;34.83;;;;;;;;;;4437803;32;20018;-71
2021/11/14 06:59:45;;;;;;;78.97;39.85;;;;;;;;;;4438242;32;20103;-71
2021/11/14 07:02:10;;;;;;;;;;;;;;;;;;4424179;32;20352;-72
2021/11/14 07:04:36;;;;;;;76.28;37.05;;;;;;;;;;4415406;32;19952;-71
2021/11/14 07:07:01;;;;;;;67.07;34.58;;;;;;;;;;4407213;32;20091;-71
2021/11/14 07:09:26;;;;;;;;;;;;;;;;;;4407405;32;20440;-71
2021/11/14 07:11:53;;;;;;;77.62;37.10;;;;;;;;;;4424654;32;19936;-71
2021/11/14 07:14:25;;;;;;;78.37;38.30;;;;;;;;;;4437541;32;20125;-71
2021/11/14 07:16:51;;;;;;;75.72;36.33;;;;;;;;;;4424466;32;20060;-71
2021/11/14 07:19:16;;;;;;;;;;;;;;;;;;4438302;32;20334;-72
2021/11/14 07:21:51;;;;;;;80.07;37.95;;;;;;;;;;4423733;32;19968;-71
2021/11/14 07:24:16;;;;;;;78.47;40.03;;;;;;;;;;4423689;32;20041;-71
2021/11/14 07:26:41;;;;;;;;;;;;;;;;;;4419160;32;20411;-71
2021/11/14 07:29:06;;;;;;;85.85;40.10;;;;;;;;;;4406989;32;19941;-71
2021/11/14 07:31:31;;;;;;;;;;;;;;;;;;4422956;32;20190;-71
2021/11/14 07:33:57;;;;;;;84.15;41.08;;;;;;;;;;4432274;32;20372;-72
2021/11/14 07:36:22;;;;;;;;;;;;;;;;;;4407038;32;20113;-72
2021/11/14 07:38:47;;;;;;;84.93;41.33;;;;;;;;;;4406190;32;19956;-72
2021/11/14 07:41:32;;;;;;;;;;;;;;;;;;;;;
2021/11/14 07:44:18;;;;;;;79.55;39.63;;;;;;;;;;4404137;32;19945;-73
2021/11/14 07:46:43;;;;;;;83.93;38.95;;;;;;;;;;4406590;32;20426;-73
2021/11/14 07:49:18;;;;;;;;;;;;;;;;;;4406247;32;20084;-72
2021/11/14 07:51:43;;;;;;;74.37;38.42;;;;;;;;;;4407132;32;20300;-72
2021/11/14 07:54:17;;;;;;;;;;;;;;;;;;4406920;32;20031;-72
2021/11/14 07:56:44;;;;;;;73.28;37.40;;;;;;;;;;4406885;32;19948;-72
2021/11/14 07:59:09;;;;;;;74.65;38.08;;;;;;;;;;4405937;32;20109;-72
2021/11/14 08:01:34;;;;;;;;;;;;;;;;;;4405048;32;20084;-71
2021/11/14 08:03:59;;;;;;;72.35;37.45;;;;;;;;;;4433203;32;20322;-72
2021/11/14 08:06:24;;;;;;;;;;;;;;;;;;4437613;32;20177;-72
2021/11/14 08:08:55;;;;;;;74.18;37.38;;;;;;;;;;4436502;32;20327;-71
2021/11/14 08:11:21;;;;;;;72.80;38.10;;;;;;;;;;4437258;32;20030;-72
2021/11/14 08:13:46;;;;;;;;;;;;;;;;;;4422516;32;20355;-72
2021/11/14 08:16:14;;;;;;;79.32;38.83;;;;;;;;;;4419288;32;19991;-71
2021/11/14 08:18:39;;;;;;;74.30;38.58;;;;;;;;;;4409447;32;20379;-72
2021/11/14 08:21:05;;;;;;;;;;;;;;;;;;4436993;32;20025;-71
2021/11/14 08:23:30;;;;;;;75.57;37.03;;;;;;;;;;4422616;32;19943;-71
2021/11/14 08:26:16;;;;;;;;;;;;;;;;;;4422381;32;20476;-72
2021/11/14 08:28:43;;;;;;;70.22;37.15;;;;;;;;;;4419852;32;19960;-71
2021/11/14 08:31:08;;;;;;;74.72;38.85;;;;;;;;;;4413345;32;20029;-71
2021/11/14 08:33:33;;;;;;;;;;;;;;;;;;4404605;32;20091;-71
2021/11/14 08:35:59;;;;;;;77.20;37.70;;;;;;;;;;4405349;32;19942;-73
2021/11/14 08:38:24;;;;;;;;;;;;;;;;;;4406075;32;20058;-73
2021/11/14 08:40:55;;;;;;;78.18;40.05;;;;;;;;;;4405582;32;19980;-72
2021/11/14 08:43:21;;;;;;;77.55;39.58;;;;;;;;;;4406655;32;20152;-71
2021/11/14 08:45:47;;;;;;;;;;;;;;;;;;4426986;32;20432;-71
2021/11/14 08:48:12;;;;;;;73.80;37.13;;;;;;;;;;4432603;32;19976;-71
2021/11/14 08:50:37;;;;;;;;;;;;;;;;;;4419681;32;20071;-71
2021/11/14 08:53:03;;;;;;;78.40;40.20;;;;;;;;;;4406403;32;20008;-72
2021/11/14 08:55:28;;;;;;;;;;;;;;;;;;4419779;32;20145;-71
2021/11/14 08:57:56;;;;;;;81.20;40.67;;;;;;;;;;4420713;32;19970;-72
2021/11/14 09:00:23;;;;;;;75.20;39.20;;;;;;;;;;4419687;32;20085;-72
2021/11/14 09:02:50;;;;;;;65.18;38.33;;;;;;;;;;4419565;32;20050;-72
2021/11/14 09:05:17;;;;;;;62.25;36.55;;;;;;;;;;4406434;32;20042;-72
2021/11/14 09:07:42;;;;;;;71.28;39.85;;;;;;;;;;4420231;32;20068;-71
2021/11/14 09:10:16;;;;;;;;;;;;;;;;;;4407185;32;20072;-72
2021/11/14 09:12:44;;;;;;;76.15;39.05;;;;;;;;;;4406433;32;19964;-71
2021/11/14 09:15:10;;;;;;;70.03;37.92;;;;;;;;;;4404039;32;20031;-72
2021/11/14 09:17:35;;;;;;;;;;;;;;;;;;4421589;32;20034;-71
2021/11/14 09:20:00;;;;;;;73.18;37.30;;;;;;;;;;4420154;32;19974;-71
2021/11/14 09:22:26;;;;;;;;;;;;;;;;;;4406719;32;20121;-71
2021/11/14 09:24:51;;;;;;;64.55;37.95;;;;;;;;;;4418768;32;19971;-72
2021/11/14 09:27:16;;;;;;;;;;;;;;;;;;4420716;32;20026;-72
2021/11/14 09:29:41;;;;;;;66.05;38.10;;;;;;;;;;4419569;32;19987;-72
2021/11/14 09:32:06;;;;;;;;;;;;;;;;;;4419880;32;20034;-72
2021/11/14 09:34:32;;;;;;;67.25;37.17;;;;;;;;;;4419837;32;19953;-71
2021/11/14 09:36:57;;;;;;;;;;;;;;;;;;4420002;32;20126;-71
2021/11/14 09:39:22;;;;;;;67.57;38.97;;;;;;;;;;4414918;32;20300;-71
2021/11/14 09:41:47;;;;;;;;;;;;;;;;;;4406255;32;20352;-72
2021/11/14 09:44:16;;;;;;;68.87;37.10;;;;;;;;;;4411404;32;19933;-71
2021/11/14 09:46:46;;;;;;;61.33;36.25;;;;;;;;;;4405693;32;20027;-72
2021/11/14 09:49:12;;;;;;;59.30;35.80;;;;;;;;;;4420311;32;20075;-71
2021/11/14 09:51:37;;;;;;;;;;;;;;;;;;4421243;32;20046;-71
2021/11/14 09:54:02;;;;;;;59.38;34.15;;;;;;;;;;4420190;32;19946;-71
2021/11/14 09:56:27;;;;;;;;;;;;;;;;;;4420606;32;20087;-71
2021/11/14 09:58:53;;;;;;;57.58;35.03;;;;;;;;;;4419942;32;19945;-70
2021/11/14 10:01:18;;;;;;;;;;;;;;;;;;4419527;32;20466;-72
2021/11/14 10:03:45;;;;;;;57.28;33.00;;;;;;;;;;4420402;32;19933;-71
2021/11/14 10:06:10;;;;;;;45.12;29.37;;;;;;;;;;4420144;32;20079;-72
2021/11/14 10:08:35;;;;;;;;;;;;;;;;;;4420197;32;20042;-70
2021/11/14 10:11:01;;;;;;;47.78;30.48;;;;;;;;;;4418286;32;19972;-70
2021/11/14 10:13:26;;;;;;;;;;;;;;;;;;4405818;32;20035;-70
2021/11/14 10:16:11;;;;;;;50.97;31.17;;;;;;;;;;4405115;32;20372;-70
2021/11/14 10:18:38;;;;;;;49.83;30.30;;;;;;;;;;4404876;32;20030;-70
2021/11/14 10:21:04;;;;;;;43.83;29.35;;;;;;;;;;4404758;32;20088;-70
2021/11/14 10:23:30;;;;;;;;;;;;;;;;;;4402456;32;20081;-71
2021/11/14 10:25:58;;;;;;;43.60;28.85;;;;;;;;;;4415426;32;19985;-71
2021/11/14 10:28:27;;;;;;;48.95;29.12;;;;;;;;;;4428350;32;20037;-70
2021/11/14 10:30:52;;;;;;;46.13;28.05;;;;;;;;;;4411559;32;20078;-71
2021/11/14 10:33:17;;;;;;;;;;;;;;;;;;4420216;32;20417;-71
2021/11/14 10:35:44;;;;;;;43.60;26.58;;;;;;;;;;4434077;32;19959;-71
2021/11/14 10:38:11;;;;;;;43.78;27.85;;;;;;;;;;4408221;32;20556;-71
2021/11/14 10:40:39;;;;;;;50.35;28.12;;;;;;;;;;4416942;32;20030;-71
2021/11/14 10:43:08;;;;;;;44.33;28.98;;;;;;;;;;4422563;32;20033;-71
2021/11/14 10:45:36;;;;;;;41.00;27.80;;;;;;;;;;4422735;32;20383;-71
2021/11/14 10:48:03;;;;;;;46.00;29.90;;;;;;;;;;4421889;32;20030;-71
2021/11/14 10:50:39;;;;;;;44.75;27.55;;;;;;;;;;4423596;32;20083;-71
2021/11/14 10:53:06;;;;;;;41.88;28.17;;;;;;;;;;4422448;32;20059;-70
2021/11/14 10:55:36;;;;;;;41.88;27.25;;;;;;;;;;4409762;32;20078;-71
2021/11/14 10:58:02;;;;;;;40.67;26.70;;;;;;;;;;4436065;32;20029;-72
2021/11/14 11:00:27;;;;;;;;;;;;;;;;;;4413246;32;20123;-71
2021/11/14 11:02:52;;;;;;;40.90;26.17;;;;;;;;;;4412851;32;19959;-71
2021/11/14 11:05:18;;;;;;;;;;;;;;;;;;4408145;32;20026;-71
2021/11/14 11:08:10;;;;;;;39.97;27.20;;;;;;;;;;4421720;32;19971;-71
2021/11/14 11:11:28;;;;;;;42.30;27.73;;;;;;;;;;4419244;32;20087;-71
2021/11/14 11:14:03;;;;;;;42.62;25.10;;;;;;;;;;4404258;32;20060;-71
2021/11/14 11:16:40;;;;;;;;;;;;;;;;;;;;;
2021/11/14 11:19:10;;;;;;;41.20;26.98;;;;;;;;;;4419098;32;20389;-71
2021/11/14 11:21:37;;;;;;;36.05;24.58;;;;;;;;;;4421548;32;20073;-71
2021/11/14 11:24:07;;;;;;;39.15;26.10;;;;;;;;;;4429662;32;20463;-71
2021/11/14 11:26:33;;;;;;;43.45;26.37;;;;;;;;;;4416150;32;20065;-72
2021/11/14 11:28:58;;;;;;;;;;;;;;;;;;4419580;32;20080;-71
2021/11/14 11:31:23;;;;;;;44.92;25.88;;;;;;;;;;4416717;32;19971;-71
2021/11/14 11:34:00;;;;;;;;;;;;;;;;;;4415812;32;20141;-72
2021/11/14 11:36:26;;;;;;;44.83;26.48;;;;;;;;;;4409063;32;20365;-72
2021/11/14 11:38:54;;;;;;;38.50;24.90;;;;;;;;;;4413801;32;20034;-72
2021/11/14 11:41:28;;;;;;;34.80;23.92;;;;;;;;;;4419187;32;20022;-71
2021/11/14 11:43:56;;;;;;;34.60;23.50;;;;;;;;;;4421956;32;20034;-71
2021/11/14 11:46:28;;;;;;;33.70;21.92;;;;;;;;;;4421229;32;20038;-71
2021/11/14 11:48:57;;;;;;;33.17;21.95;;;;;;;;;;4421099;32;20037;-71
2021/11/14 11:51:36;;;;;;;31.10;22.65;;;;;;;;;;4424433;32;20131;-70
2021/11/14 11:54:07;;;;;;;33.90;21.70;;;;;;;;;;4420793;32;20052;-70
2021/11/14 11:56:43;;;;;;;36.17;23.48;;;;;;;;;;4416027;32;20065;-70
2021/11/14 11:59:12;;;;;;;33.58;22.20;;;;;;;;;;4407709;32;20335;-72
2021/11/14 12:01:46;;;;;;;32.08;21.00;;;;;;;;;;4407204;32;20034;-71
2021/11/14 12:04:14;;;;;;;37.38;22.80;;;;;;;;;;4419687;32;20056;-71
2021/11/14 12:06:44;;;;;;;33.58;22.70;;;;;;;;;;4402007;32;20034;-71
2021/11/14 12:09:10;;;;;;;35.13;22.75;;;;;;;;;;4425737;32;20045;-73
2021/11/14 12:11:35;;;;;;;;;;;;;;;;;;4416783;32;20052;-71
2021/11/14 12:14:12;;;;;;;30.77;20.30;;;;;;;;;;4413377;32;19996;-71
2021/11/14 12:16:37;;;;;;;36.40;22.10;;;;;;;;;;4406280;32;20044;-71
2021/11/14 12:19:02;;;;;;;;;;;;;;;;;;4406697;32;20039;-70
2021/11/14 12:21:31;;;;;;;33.40;20.42;;;;;;;;;;4413269;32;19960;-71
2021/11/14 12:24:11;;;;;;;33.85;22.05;;;;;;;;;;4420607;32;20056;-74
2021/11/14 12:26:36;;;;;;;33.90;21.23;;;;;;;;;;4421415;32;20396;-74
2021/11/14 12:29:05;;;;;;;;;;;;;;;;;;4415407;32;20085;-74
2021/11/14 12:31:53;;;;;;;32.20;20.67;;;;;;;;;;4405799;32;19934;-75
2021/11/14 12:34:27;;;;;;;31.23;21.20;;;;;;;;;;4405351;32;20384;-74
2021/11/14 12:37:04;;;;;;;31.45;21.05;;;;;;;;;;4407670;32;20088;-72
2021/11/14 12:39:30;;;;;;;32.10;20.33;;;;;;;;;;4436453;32;20055;-73
2021/11/14 12:41:58;;;;;;;33.67;21.08;;;;;;;;;;4436605;32;20052;-74
2021/11/14 12:44:32;;;;;;;35.08;21.98;;;;;;;;;;4436030;32;20384;-72
2021/11/14 12:47:22;;;;;;;35.70;21.87;;;;;;;;;;4436396;32;20096;-73
2021/11/14 12:50:05;;;;;;;36.03;22.35;;;;;;;;;;4435532;32;20068;-73
2021/11/14 12:52:32;;;;;;;35.58;22.52;;;;;;;;;;4435508;32;20030;-74
2021/11/14 12:55:01;;;;;;;32.08;22.27;;;;;;;;;;4436140;32;20029;-72
2021/11/14 12:57:38;;;;;;;30.08;21.65;;;;;;;;;;4436100;32;20093;-74
2021/11/14 13:00:06;;;;;;;33.55;21.25;;;;;;;;;;4413664;32;20077;-74
2021/11/14 13:02:32;;;;;;;32.22;22.10;;;;;;;;;;4405479;32;20064;-73
2021/11/14 13:04:59;;;;;;;;;;;;;;;;;;4406438;32;20370;-73
2021/11/14 13:07:36;;;;;;;33.88;21.80;;;;;;;;;;4435472;32;19993;-74
2021/11/14 13:10:01;;;;;;;29.30;20.85;;;;;;;;;;4437105;32;20157;-73
2021/11/14 13:12:26;;;;;;;;;;;;;;;;;;4435994;32;20025;-73
2021/11/14 13:15:00;;;;;;;29.10;19.75;;;;;;;;;;4420653;32;19999;-74
2021/11/14 13:17:28;;;;;;;30.37;20.10;;;;;;;;;;4420096;32;20068;-73
2021/11/14 13:19:55;;;;;;;27.65;20.12;;;;;;;;;;4406526;32;20056;-73
2021/11/14 13:22:21;;;;;;;30.92;20.73;;;;;;;;;;4404088;32;20034;-73
2021/11/14 13:24:54;;;;;;;34.60;22.60;;;;;;;;;;4405170;32;20063;-73
2021/11/14 13:27:20;;;;;;;32.45;22.95;;;;;;;;;;4405532;32;20397;-73
2021/11/14 13:29:45;;;;;;;;;;;;;;;;;;4405797;32;20038;-73
2021/11/14 13:32:15;;;;;;;31.40;20.85;;;;;;;;;;4405757;32;20363;-73
2021/11/14 13:34:42;;;;;;;31.80;22.92;;;;;;;;;;4407434;32;20470;-75
2021/11/14 13:37:14;;;;;;;29.60;20.85;;;;;;;;;;4435713;32;20036;-73
2021/11/14 13:39:41;;;;;;;29.30;21.05;;;;;;;;;;4436336;32;20060;-73
2021/11/14 13:42:32;;;;;;;36.80;22.48;;;;;;;;;;4432425;32;20058;-74
2021/11/14 13:45:00;;;;;;;29.12;22.02;;;;;;;;;;4415948;32;20086;-74
2021/11/14 13:47:49;;;;;;;36.03;23.60;;;;;;;;;;4419937;32;20064;-74
2021/11/14 13:50:31;;;;;;;32.67;23.62;;;;;;;;;;4414276;32;20103;-73
2021/11/14 13:53:02;;;;;;;27.75;21.73;;;;;;;;;;4405541;32;20054;-72
2021/11/14 13:56:06;;;;;;;29.70;22.15;;;;;;;;;;4405222;32;20033;-74
2021/11/14 13:58:38;;;;;;;28.10;20.55;;;;;;;;;;4403258;32;20025;-72
2021/11/14 14:01:04;;;;;;;29.37;20.77;;;;;;;;;;4407095;32;20341;-72
2021/11/14 14:03:29;;;;;;;;;;;;;;;;;;4420977;32;20082;-71
2021/11/14 14:06:14;;;;;;;28.17;20.30;;;;;;;;;;4423150;32;19952;-73
2021/11/14 14:11:35;;;;;;;28.55;20.52;;;;;;;;;;4395875;32;20130;-73
2021/11/14 14:14:02;;;;;;;25.17;20.23;;;;;;;;;;4407548;32;20034;-73
2021/11/14 14:16:56;;;;;;;31.05;21.33;;;;;;;;;;4407239;32;20030;-73
2021/11/14 14:19:34;;;;;;;28.50;20.23;;;;;;;;;;4402255;32;20034;-73
2021/11/14 14:22:16;;;;;;;29.60;21.20;;;;;;;;;;4415118;32;20088;-74
2021/11/14 14:24:49;;;;;;;32.35;20.88;;;;;;;;;;4408992;32;20053;-74
2021/11/14 14:27:20;;;;;;;29.12;20.70;;;;;;;;;;4420785;32;20079;-73
2021/11/14 14:29:59;;;;;;;31.48;22.23;;;;;;;;;;4407948;32;20477;-74
2021/11/14 14:32:34;;;;;;;25.70;19.55;;;;;;;;;;4411272;32;20112;-74
2021/11/14 14:35:06;;;;;;;28.52;20.85;;;;;;;;;;4413913;32;20094;-73
2021/11/14 14:37:38;;;;;;;31.87;21.52;;;;;;;;;;4407399;32;20077;-74
2021/11/14 14:40:07;;;;;;;27.65;21.17;;;;;;;;;;4406284;32;20115;-74
2021/11/14 14:42:54;;;;;;;33.97;22.80;;;;;;;;;;4409929;32;20074;-74
2021/11/14 14:45:21;;;;;;;32.35;22.62;;;;;;;;;;4420974;32;20470;-73
2021/11/14 14:47:53;;;;;;;35.33;24.25;;;;;;;;;;4421082;32;20369;-73
2021/11/14 14:50:19;;;;;;;29.25;22.20;;;;;;;;;;4415548;32;20095;-73
2021/11/14 14:52:44;;;;;;;;;;;;;;;;;;4407640;32;20097;-73
2021/11/14 14:55:13;;;;;;;29.15;21.75;;;;;;;;;;4407366;32;19952;-73
2021/11/14 14:57:51;;;;;;;;;;;;;;;;;;;;;
2021/11/14 15:00:30;;;;;;;33.10;23.65;;;;;;;;;;4407049;32;20046;-73
2021/11/14 15:02:59;;;;;;;27.00;20.15;;;;;;;;;;4428886;32;20026;-74
2021/11/14 15:05:31;;;;;;;28.33;20.98;;;;;;;;;;4407295;32;20046;-74
2021/11/14 15:07:59;;;;;;;28.73;20.98;;;;;;;;;;4407618;32;20427;-74
2021/11/14 15:10:31;;;;;;;26.35;19.65;;;;;;;;;;4421484;32;20058;-73
2021/11/14 15:12:59;;;;;;;31.52;22.37;;;;;;;;;;4420152;32;20033;-73
2021/11/14 15:15:25;;;;;;;31.65;21.77;;;;;;;;;;4422064;32;20045;-73
2021/11/14 15:18:12;;;;;;;30.42;20.50;;;;;;;;;;4420563;32;20057;-73
2021/11/14 15:20:40;;;;;;;25.00;19.00;;;;;;;;;;4407308;32;20079;-73
2021/11/14 15:23:17;;;;;;;29.98;19.30;;;;;;;;;;4406546;32;20034;-74